Huvudsida
METAR-TAF:

METAR-TAF

Flygplatser :

Ouagadougou Airport

Ouagadougou, Burkina Faso

latitud: 12-21N, longitud: 001-31W, höjd: 316 m

Aktuellt väderrapport

Denna rapport gjordes för 54 minuter sedan, klockan 20:00 UTC
Vind 6 kt från nord
Temperatur 32°C
Fuktighet 12%
Tryck 1013 hPa
Sikt 10 km eller mer
Inga moln under 1 500 m eller inga cumulonimbus

METAR: DFFD 212000Z 35006KT CAVOK 32/M01 Q1013 NOSIG

Tid: 20:54 (20:54 UTC)

Väderprognos

Denna rapport gjordes för 3 timmar och 54 minuter sedan, klockan 17:00 UTC
Prognos gäller från 21 kl. 18 UTC till 22 kl. 24 UTC
Vind 10 kt från nord/nordost
Sikt: 8000 m
Temporärt
från 21 kl. 18 UTC till 21 kl. 21 UTC
Sikt: 4000 m
utbrett stoft
Temporärt
från 22 kl. 06 UTC till 22 kl. 10 UTC
Sikt: 3500 m
utbrett stoft

TAF: DFFD 211700Z 2118/2224 02010KT 8000 NSC TEMPO 2118/2121 4000 DU TEMPO 2206/2210 3500 DU

Aktuella väderrapporter och prognoser från 4000 flygplatser (METAR- och TAF-rapporter).

De tillgängliga stationerna syns som gula och röda prickar på kartan.

För musen över prickarna för att se namnen på stationerna.

Klicka sedan för att få väderrapporter och prognoser.

För att ändra kartan: Klicka på de gröna knapparna med ett svart kors på för att zooma in; den gröna knappen med ett streck på för att zooma ut; eller på de gröna pilarna för angränsande kartor.


METAR-TAF: